sensor_id;sensor_type;location;lat;lon;timestamp;temperature;humidity
16966;DHT22;8599;47.852;12.070;2023-09-19T00:00:56;17.10;99.90
16966;DHT22;8599;47.852;12.070;2023-09-19T00:03:23;17.10;99.90
16966;DHT22;8599;47.852;12.070;2023-09-19T00:05:51;17.00;99.90
16966;DHT22;8599;47.852;12.070;2023-09-19T00:08:18;16.90;99.90
16966;DHT22;8599;47.852;12.070;2023-09-19T00:10:48;16.90;99.90
16966;DHT22;8599;47.852;12.070;2023-09-19T00:13:15;16.90;99.90
16966;DHT22;8599;47.852;12.070;2023-09-19T00:15:44;17.00;99.90
16966;DHT22;8599;47.852;12.070;2023-09-19T00:18:14;17.00;99.90
16966;DHT22;8599;47.852;12.070;2023-09-19T00:20:42;16.90;99.90
16966;DHT22;8599;47.852;12.070;2023-09-19T00:23:14;16.90;99.90
16966;DHT22;8599;47.852;12.070;2023-09-19T00:25:42;16.90;99.90
16966;DHT22;8599;47.852;12.070;2023-09-19T00:28:09;16.80;99.90
16966;DHT22;8599;47.852;12.070;2023-09-19T00:30:36;16.70;99.90
16966;DHT22;8599;47.852;12.070;2023-09-19T00:33:04;16.60;99.90
16966;DHT22;8599;47.852;12.070;2023-09-19T00:35:33;16.40;99.90
16966;DHT22;8599;47.852;12.070;2023-09-19T00:38:00;16.40;99.90
16966;DHT22;8599;47.852;12.070;2023-09-19T00:40:28;16.40;99.90
16966;DHT22;8599;47.852;12.070;2023-09-19T00:42:58;16.40;99.90
16966;DHT22;8599;47.852;12.070;2023-09-19T00:45:25;16.50;99.90
16966;DHT22;8599;47.852;12.070;2023-09-19T00:47:53;16.70;99.90
16966;DHT22;8599;47.852;12.070;2023-09-19T00:50:23;16.70;99.90
16966;DHT22;8599;47.852;12.070;2023-09-19T00:52:54;16.70;99.90
16966;DHT22;8599;47.852;12.070;2023-09-19T00:55:21;16.80;99.90
16966;DHT22;8599;47.852;12.070;2023-09-19T00:57:51;16.70;99.90
16966;DHT22;8599;47.852;12.070;2023-09-19T01:00:19;16.70;99.90
16966;DHT22;8599;47.852;12.070;2023-09-19T01:02:46;16.70;99.90
16966;DHT22;8599;47.852;12.070;2023-09-19T01:05:14;16.80;99.90
16966;DHT22;8599;47.852;12.070;2023-09-19T01:07:41;16.80;99.90
16966;DHT22;8599;47.852;12.070;2023-09-19T01:10:09;16.80;99.90
16966;DHT22;8599;47.852;12.070;2023-09-19T01:12:46;16.80;99.90
16966;DHT22;8599;47.852;12.070;2023-09-19T01:15:22;16.80;99.90
16966;DHT22;8599;47.852;12.070;2023-09-19T01:17:57;16.80;99.90
16966;DHT22;8599;47.852;12.070;2023-09-19T01:20:34;16.80;99.90
16966;DHT22;8599;47.852;12.070;2023-09-19T01:23:12;16.90;99.90
16966;DHT22;8599;47.852;12.070;2023-09-19T01:25:56;17.00;99.90
16966;DHT22;8599;47.852;12.070;2023-09-19T01:28:31;17.00;99.90
16966;DHT22;8599;47.852;12.070;2023-09-19T01:31:04;17.30;99.90
16966;DHT22;8599;47.852;12.070;2023-09-19T01:33:53;17.30;99.90
16966;DHT22;8599;47.852;12.070;2023-09-19T01:36:22;17.10;99.90
16966;DHT22;8599;47.852;12.070;2023-09-19T01:38:50;17.00;99.90
16966;DHT22;8599;47.852;12.070;2023-09-19T01:41:29;17.00;99.90
16966;DHT22;8599;47.852;12.070;2023-09-19T01:44:00;17.10;99.90
16966;DHT22;8599;47.852;12.070;2023-09-19T01:46:34;17.00;99.90
16966;DHT22;8599;47.852;12.070;2023-09-19T01:49:11;17.00;99.90
16966;DHT22;8599;47.852;12.070;2023-09-19T01:51:44;17.10;99.90
16966;DHT22;8599;47.852;12.070;2023-09-19T01:54:13;17.00;99.90
16966;DHT22;8599;47.852;12.070;2023-09-19T01:56:49;17.10;99.90
16966;DHT22;8599;47.852;12.070;2023-09-19T01:59:25;17.00;99.90
16966;DHT22;8599;47.852;12.070;2023-09-19T02:01:54;17.00;99.90
16966;DHT22;8599;47.852;12.070;2023-09-19T02:04:21;17.10;99.90
16966;DHT22;8599;47.852;12.070;2023-09-19T02:06:48;17.00;99.90
16966;DHT22;8599;47.852;12.070;2023-09-19T02:09:15;16.90;99.90
16966;DHT22;8599;47.852;12.070;2023-09-19T02:11:42;16.90;99.90
16966;DHT22;8599;47.852;12.070;2023-09-19T02:14:09;16.80;99.90
16966;DHT22;8599;47.852;12.070;2023-09-19T02:16:36;16.80;99.90
16966;DHT22;8599;47.852;12.070;2023-09-19T02:19:04;16.70;99.90
16966;DHT22;8599;47.852;12.070;2023-09-19T02:21:31;16.80;99.90
16966;DHT22;8599;47.852;12.070;2023-09-19T02:23:58;17.00;99.90
16966;DHT22;8599;47.852;12.070;2023-09-19T02:26:25;16.90;99.90
16966;DHT22;8599;47.852;12.070;2023-09-19T02:28:52;16.80;99.90
16966;DHT22;8599;47.852;12.070;2023-09-19T02:31:19;16.70;99.90
16966;DHT22;8599;47.852;12.070;2023-09-19T02:33:46;16.60;99.90
16966;DHT22;8599;47.852;12.070;2023-09-19T02:36:14;16.60;99.90
16966;DHT22;8599;47.852;12.070;2023-09-19T02:38:42;16.60;99.90
16966;DHT22;8599;47.852;12.070;2023-09-19T02:41:09;16.60;99.90
16966;DHT22;8599;47.852;12.070;2023-09-19T02:43:37;16.60;99.90
16966;DHT22;8599;47.852;12.070;2023-09-19T02:46:04;16.60;99.90
16966;DHT22;8599;47.852;12.070;2023-09-19T02:48:31;16.60;99.90
16966;DHT22;8599;47.852;12.070;2023-09-19T02:51:00;16.70;99.90
16966;DHT22;8599;47.852;12.070;2023-09-19T02:53:28;16.60;99.90
16966;DHT22;8599;47.852;12.070;2023-09-19T02:55:56;16.70;99.90
16966;DHT22;8599;47.852;12.070;2023-09-19T02:58:24;16.70;99.90
16966;DHT22;8599;47.852;12.070;2023-09-19T03:00:53;16.70;99.90
16966;DHT22;8599;47.852;12.070;2023-09-19T03:03:20;16.70;99.90
16966;DHT22;8599;47.852;12.070;2023-09-19T03:05:48;16.60;99.90
16966;DHT22;8599;47.852;12.070;2023-09-19T03:08:17;16.60;99.90
16966;DHT22;8599;47.852;12.070;2023-09-19T03:10:47;16.70;99.90
16966;DHT22;8599;47.852;12.070;2023-09-19T03:13:14;16.70;99.90
16966;DHT22;8599;47.852;12.070;2023-09-19T03:15:41;16.60;99.90
16966;DHT22;8599;47.852;12.070;2023-09-19T03:18:09;16.60;99.90
16966;DHT22;8599;47.852;12.070;2023-09-19T03:20:36;16.60;99.90
16966;DHT22;8599;47.852;12.070;2023-09-19T03:23:04;16.70;99.90
16966;DHT22;8599;47.852;12.070;2023-09-19T03:25:33;16.60;99.90
16966;DHT22;8599;47.852;12.070;2023-09-19T03:28:03;16.60;99.90
16966;DHT22;8599;47.852;12.070;2023-09-19T03:30:31;16.60;99.90
16966;DHT22;8599;47.852;12.070;2023-09-19T03:33:00;16.60;99.90
16966;DHT22;8599;47.852;12.070;2023-09-19T03:35:27;16.60;99.90
16966;DHT22;8599;47.852;12.070;2023-09-19T03:37:54;16.60;99.90
16966;DHT22;8599;47.852;12.070;2023-09-19T03:40:21;16.60;99.90
16966;DHT22;8599;47.852;12.070;2023-09-19T03:42:49;16.50;99.90
16966;DHT22;8599;47.852;12.070;2023-09-19T03:45:17;16.40;99.90
16966;DHT22;8599;47.852;12.070;2023-09-19T03:47:44;16.50;99.90
16966;DHT22;8599;47.852;12.070;2023-09-19T03:50:12;16.50;99.90
16966;DHT22;8599;47.852;12.070;2023-09-19T03:52:41;16.50;99.90
16966;DHT22;8599;47.852;12.070;2023-09-19T03:55:08;16.50;99.90
16966;DHT22;8599;47.852;12.070;2023-09-19T03:57:35;16.50;99.90
16966;DHT22;8599;47.852;12.070;2023-09-19T04:00:02;16.50;99.90
16966;DHT22;8599;47.852;12.070;2023-09-19T04:02:31;16.50;99.90
16966;DHT22;8599;47.852;12.070;2023-09-19T04:04:59;16.50;99.90
16966;DHT22;8599;47.852;12.070;2023-09-19T04:07:25;16.60;99.90
16966;DHT22;8599;47.852;12.070;2023-09-19T04:09:54;16.60;99.90
16966;DHT22;8599;47.852;12.070;2023-09-19T04:12:21;16.60;99.90
16966;DHT22;8599;47.852;12.070;2023-09-19T04:14:48;16.60;99.90
16966;DHT22;8599;47.852;12.070;2023-09-19T04:17:15;16.60;99.90
16966;DHT22;8599;47.852;12.070;2023-09-19T04:19:43;16.60;99.90
16966;DHT22;8599;47.852;12.070;2023-09-19T04:22:11;16.60;99.90
16966;DHT22;8599;47.852;12.070;2023-09-19T04:24:38;16.60;99.90
16966;DHT22;8599;47.852;12.070;2023-09-19T04:27:05;16.60;99.90
16966;DHT22;8599;47.852;12.070;2023-09-19T04:29:32;16.70;99.90
16966;DHT22;8599;47.852;12.070;2023-09-19T04:31:59;16.60;99.90
16966;DHT22;8599;47.852;12.070;2023-09-19T04:34:26;16.60;99.90
16966;DHT22;8599;47.852;12.070;2023-09-19T04:36:54;16.60;99.90
16966;DHT22;8599;47.852;12.070;2023-09-19T04:39:22;16.70;99.90
16966;DHT22;8599;47.852;12.070;2023-09-19T04:41:51;16.70;99.90
16966;DHT22;8599;47.852;12.070;2023-09-19T04:44:18;16.70;99.90
16966;DHT22;8599;47.852;12.070;2023-09-19T04:46:45;16.80;99.90
16966;DHT22;8599;47.852;12.070;2023-09-19T04:49:12;16.90;99.90
16966;DHT22;8599;47.852;12.070;2023-09-19T04:51:39;16.80;99.90
16966;DHT22;8599;47.852;12.070;2023-09-19T04:54:07;16.80;99.90
16966;DHT22;8599;47.852;12.070;2023-09-19T04:56:35;16.90;99.90
16966;DHT22;8599;47.852;12.070;2023-09-19T04:59:02;16.80;99.90
16966;DHT22;8599;47.852;12.070;2023-09-19T05:01:29;16.80;99.90
16966;DHT22;8599;47.852;12.070;2023-09-19T05:03:56;16.90;99.90
16966;DHT22;8599;47.852;12.070;2023-09-19T05:06:23;16.80;99.90
16966;DHT22;8599;47.852;12.070;2023-09-19T05:08:52;16.80;99.90
16966;DHT22;8599;47.852;12.070;2023-09-19T05:11:20;16.70;99.90
16966;DHT22;8599;47.852;12.070;2023-09-19T05:13:48;16.70;99.90
16966;DHT22;8599;47.852;12.070;2023-09-19T05:16:15;16.70;99.90
16966;DHT22;8599;47.852;12.070;2023-09-19T05:18:42;16.70;99.90
16966;DHT22;8599;47.852;12.070;2023-09-19T05:21:09;16.70;99.90
16966;DHT22;8599;47.852;12.070;2023-09-19T05:23:36;16.70;99.90
16966;DHT22;8599;47.852;12.070;2023-09-19T05:26:03;16.60;99.90
16966;DHT22;8599;47.852;12.070;2023-09-19T05:28:32;16.60;99.90
16966;DHT22;8599;47.852;12.070;2023-09-19T05:31:00;16.70;99.90
16966;DHT22;8599;47.852;12.070;2023-09-19T05:33:27;16.70;99.90
16966;DHT22;8599;47.852;12.070;2023-09-19T05:35:57;16.70;99.90
16966;DHT22;8599;47.852;12.070;2023-09-19T05:38:24;16.70;99.90
16966;DHT22;8599;47.852;12.070;2023-09-19T05:40:52;16.70;99.90
16966;DHT22;8599;47.852;12.070;2023-09-19T05:43:19;16.70;99.90
16966;DHT22;8599;47.852;12.070;2023-09-19T05:45:47;16.70;99.90
16966;DHT22;8599;47.852;12.070;2023-09-19T05:48:17;16.80;99.90
16966;DHT22;8599;47.852;12.070;2023-09-19T05:50:46;16.90;99.90
16966;DHT22;8599;47.852;12.070;2023-09-19T05:53:14;16.80;99.90
16966;DHT22;8599;47.852;12.070;2023-09-19T05:55:41;16.90;99.90
16966;DHT22;8599;47.852;12.070;2023-09-19T05:58:08;17.00;99.90
16966;DHT22;8599;47.852;12.070;2023-09-19T06:00:35;17.00;99.90
16966;DHT22;8599;47.852;12.070;2023-09-19T06:03:04;17.10;99.90
16966;DHT22;8599;47.852;12.070;2023-09-19T06:05:30;17.10;99.90
16966;DHT22;8599;47.852;12.070;2023-09-19T06:07:57;17.10;99.90
16966;DHT22;8599;47.852;12.070;2023-09-19T06:10:25;17.10;99.90
16966;DHT22;8599;47.852;12.070;2023-09-19T06:12:53;17.10;99.90
16966;DHT22;8599;47.852;12.070;2023-09-19T06:15:23;17.20;99.90
16966;DHT22;8599;47.852;12.070;2023-09-19T06:17:51;17.20;99.90
16966;DHT22;8599;47.852;12.070;2023-09-19T06:20:22;17.20;99.90
16966;DHT22;8599;47.852;12.070;2023-09-19T06:22:51;17.20;99.90
16966;DHT22;8599;47.852;12.070;2023-09-19T06:25:19;17.20;99.90
16966;DHT22;8599;47.852;12.070;2023-09-19T06:27:47;17.20;99.90
16966;DHT22;8599;47.852;12.070;2023-09-19T06:30:14;17.20;99.90
16966;DHT22;8599;47.852;12.070;2023-09-19T06:32:43;17.30;99.90
16966;DHT22;8599;47.852;12.070;2023-09-19T06:35:10;17.30;99.90
16966;DHT22;8599;47.852;12.070;2023-09-19T06:37:39;17.40;99.90
16966;DHT22;8599;47.852;12.070;2023-09-19T06:40:08;17.30;99.90
16966;DHT22;8599;47.852;12.070;2023-09-19T06:42:39;17.30;99.90
16966;DHT22;8599;47.852;12.070;2023-09-19T06:45:07;17.30;99.90
16966;DHT22;8599;47.852;12.070;2023-09-19T06:47:36;17.30;99.90
16966;DHT22;8599;47.852;12.070;2023-09-19T06:50:03;17.30;99.90
16966;DHT22;8599;47.852;12.070;2023-09-19T06:52:31;17.30;99.90
16966;DHT22;8599;47.852;12.070;2023-09-19T06:55:00;17.40;99.90
16966;DHT22;8599;47.852;12.070;2023-09-19T06:57:28;17.40;99.90
16966;DHT22;8599;47.852;12.070;2023-09-19T06:59:56;17.50;99.90
16966;DHT22;8599;47.852;12.070;2023-09-19T07:02:22;17.50;99.90
16966;DHT22;8599;47.852;12.070;2023-09-19T07:04:49;17.60;99.90
16966;DHT22;8599;47.852;12.070;2023-09-19T07:07:16;17.70;99.90
16966;DHT22;8599;47.852;12.070;2023-09-19T07:09:43;17.70;99.90
16966;DHT22;8599;47.852;12.070;2023-09-19T07:12:11;17.80;99.90
16966;DHT22;8599;47.852;12.070;2023-09-19T07:14:38;17.90;99.90
16966;DHT22;8599;47.852;12.070;2023-09-19T07:17:06;17.90;99.90
16966;DHT22;8599;47.852;12.070;2023-09-19T07:19:33;17.90;99.90
16966;DHT22;8599;47.852;12.070;2023-09-19T07:22:00;17.90;99.90
16966;DHT22;8599;47.852;12.070;2023-09-19T07:24:28;17.90;99.90
16966;DHT22;8599;47.852;12.070;2023-09-19T07:26:54;18.00;99.90
16966;DHT22;8599;47.852;12.070;2023-09-19T07:29:23;18.00;99.90
16966;DHT22;8599;47.852;12.070;2023-09-19T07:31:51;18.20;99.90
16966;DHT22;8599;47.852;12.070;2023-09-19T07:34:18;18.20;99.90
16966;DHT22;8599;47.852;12.070;2023-09-19T07:36:47;18.20;99.90
16966;DHT22;8599;47.852;12.070;2023-09-19T07:39:14;18.30;99.90
16966;DHT22;8599;47.852;12.070;2023-09-19T07:41:40;18.30;99.90
16966;DHT22;8599;47.852;12.070;2023-09-19T07:44:07;18.40;99.90
16966;DHT22;8599;47.852;12.070;2023-09-19T07:46:37;18.60;99.90
16966;DHT22;8599;47.852;12.070;2023-09-19T07:49:04;18.60;99.90
16966;DHT22;8599;47.852;12.070;2023-09-19T07:51:30;18.60;99.90
16966;DHT22;8599;47.852;12.070;2023-09-19T07:53:58;18.90;99.90
16966;DHT22;8599;47.852;12.070;2023-09-19T07:56:25;19.00;99.90
16966;DHT22;8599;47.852;12.070;2023-09-19T07:58:53;19.20;99.90
16966;DHT22;8599;47.852;12.070;2023-09-19T08:01:20;19.20;99.90
16966;DHT22;8599;47.852;12.070;2023-09-19T08:03:50;19.10;99.90
16966;DHT22;8599;47.852;12.070;2023-09-19T08:06:18;19.20;99.90
16966;DHT22;8599;47.852;12.070;2023-09-19T08:08:46;19.30;99.90
16966;DHT22;8599;47.852;12.070;2023-09-19T08:11:15;19.20;99.90
16966;DHT22;8599;47.852;12.070;2023-09-19T08:13:46;19.20;99.90
16966;DHT22;8599;47.852;12.070;2023-09-19T08:16:14;19.10;99.90
16966;DHT22;8599;47.852;12.070;2023-09-19T08:18:41;19.20;99.90
16966;DHT22;8599;47.852;12.070;2023-09-19T08:21:11;19.20;99.90
16966;DHT22;8599;47.852;12.070;2023-09-19T08:23:41;19.40;99.90
16966;DHT22;8599;47.852;12.070;2023-09-19T08:26:08;19.40;99.90
16966;DHT22;8599;47.852;12.070;2023-09-19T08:28:36;19.30;99.90
16966;DHT22;8599;47.852;12.070;2023-09-19T08:31:07;19.40;99.90
16966;DHT22;8599;47.852;12.070;2023-09-19T08:33:35;19.40;99.90
16966;DHT22;8599;47.852;12.070;2023-09-19T08:36:02;19.40;99.90
16966;DHT22;8599;47.852;12.070;2023-09-19T08:38:31;19.40;99.90
16966;DHT22;8599;47.852;12.070;2023-09-19T08:40:59;19.50;99.90
16966;DHT22;8599;47.852;12.070;2023-09-19T08:43:26;19.50;99.90
16966;DHT22;8599;47.852;12.070;2023-09-19T08:45:58;19.70;99.90
16966;DHT22;8599;47.852;12.070;2023-09-19T08:48:26;19.60;99.90
16966;DHT22;8599;47.852;12.070;2023-09-19T08:50:57;19.70;99.90
16966;DHT22;8599;47.852;12.070;2023-09-19T08:53:33;19.70;99.90
16966;DHT22;8599;47.852;12.070;2023-09-19T08:56:03;19.70;99.90
16966;DHT22;8599;47.852;12.070;2023-09-19T08:58:42;19.80;99.90
16966;DHT22;8599;47.852;12.070;2023-09-19T09:01:11;19.70;99.90
16966;DHT22;8599;47.852;12.070;2023-09-19T09:03:40;19.80;99.90
16966;DHT22;8599;47.852;12.070;2023-09-19T09:06:09;19.90;99.90
16966;DHT22;8599;47.852;12.070;2023-09-19T09:08:40;20.00;99.90
16966;DHT22;8599;47.852;12.070;2023-09-19T09:11:07;20.00;99.90
16966;DHT22;8599;47.852;12.070;2023-09-19T09:13:35;19.90;99.90
16966;DHT22;8599;47.852;12.070;2023-09-19T09:16:03;19.90;99.90
16966;DHT22;8599;47.852;12.070;2023-09-19T09:18:29;19.80;99.90
16966;DHT22;8599;47.852;12.070;2023-09-19T09:20:56;19.80;99.90
16966;DHT22;8599;47.852;12.070;2023-09-19T09:23:23;19.80;99.90
16966;DHT22;8599;47.852;12.070;2023-09-19T09:25:53;20.00;99.90
16966;DHT22;8599;47.852;12.070;2023-09-19T09:28:23;20.00;99.90
16966;DHT22;8599;47.852;12.070;2023-09-19T09:30:50;20.10;99.90
16966;DHT22;8599;47.852;12.070;2023-09-19T09:33:17;20.10;99.90
16966;DHT22;8599;47.852;12.070;2023-09-19T09:35:48;20.20;99.90
16966;DHT22;8599;47.852;12.070;2023-09-19T09:38:18;20.20;99.90
16966;DHT22;8599;47.852;12.070;2023-09-19T09:40:50;20.10;99.90
16966;DHT22;8599;47.852;12.070;2023-09-19T09:43:28;20.20;99.90
16966;DHT22;8599;47.852;12.070;2023-09-19T09:46:10;20.30;99.90
16966;DHT22;8599;47.852;12.070;2023-09-19T09:49:01;20.30;99.90
16966;DHT22;8599;47.852;12.070;2023-09-19T09:52:00;20.40;99.90
16966;DHT22;8599;47.852;12.070;2023-09-19T09:54:31;20.50;99.90
16966;DHT22;8599;47.852;12.070;2023-09-19T09:57:03;20.60;99.90
16966;DHT22;8599;47.852;12.070;2023-09-19T09:59:48;20.70;99.90
16966;DHT22;8599;47.852;12.070;2023-09-19T10:02:17;20.80;99.90
16966;DHT22;8599;47.852;12.070;2023-09-19T10:04:50;20.70;99.90
16966;DHT22;8599;47.852;12.070;2023-09-19T10:07:35;20.80;99.90
16966;DHT22;8599;47.852;12.070;2023-09-19T10:10:04;20.90;99.90
16966;DHT22;8599;47.852;12.070;2023-09-19T10:12:43;20.90;99.90
16966;DHT22;8599;47.852;12.070;2023-09-19T10:15:12;20.90;99.90
16966;DHT22;8599;47.852;12.070;2023-09-19T10:17:43;21.00;99.90
16966;DHT22;8599;47.852;12.070;2023-09-19T10:20:12;21.00;99.90
16966;DHT22;8599;47.852;12.070;2023-09-19T10:22:59;21.10;99.90
16966;DHT22;8599;47.852;12.070;2023-09-19T10:25:27;21.10;99.90
16966;DHT22;8599;47.852;12.070;2023-09-19T10:27:57;21.30;99.90
16966;DHT22;8599;47.852;12.070;2023-09-19T10:30:27;21.40;99.90
16966;DHT22;8599;47.852;12.070;2023-09-19T10:33:00;21.40;99.90
16966;DHT22;8599;47.852;12.070;2023-09-19T10:35:28;21.50;99.90
16966;DHT22;8599;47.852;12.070;2023-09-19T10:37:59;21.50;99.90
16966;DHT22;8599;47.852;12.070;2023-09-19T10:40:27;21.50;99.90
16966;DHT22;8599;47.852;12.070;2023-09-19T10:43:01;21.60;99.90
16966;DHT22;8599;47.852;12.070;2023-09-19T10:45:34;21.40;99.90
16966;DHT22;8599;47.852;12.070;2023-09-19T10:48:04;21.40;99.90
16966;DHT22;8599;47.852;12.070;2023-09-19T10:50:35;21.40;99.90
16966;DHT22;8599;47.852;12.070;2023-09-19T10:53:05;21.30;99.90
16966;DHT22;8599;47.852;12.070;2023-09-19T10:55:34;21.40;99.90
16966;DHT22;8599;47.852;12.070;2023-09-19T10:58:02;21.50;99.90
16966;DHT22;8599;47.852;12.070;2023-09-19T11:00:55;21.60;99.90
16966;DHT22;8599;47.852;12.070;2023-09-19T11:03:27;21.70;99.90
16966;DHT22;8599;47.852;12.070;2023-09-19T11:06:03;21.90;99.90
16966;DHT22;8599;47.852;12.070;2023-09-19T11:08:55;22.00;99.90
16966;DHT22;8599;47.852;12.070;2023-09-19T11:11:40;22.10;99.90
16966;DHT22;8599;47.852;12.070;2023-09-19T11:14:37;22.20;99.90
16966;DHT22;8599;47.852;12.070;2023-09-19T11:17:32;22.30;99.90
16966;DHT22;8599;47.852;12.070;2023-09-19T11:20:23;22.30;99.90
16966;DHT22;8599;47.852;12.070;2023-09-19T11:23:22;22.50;99.90
16966;DHT22;8599;47.852;12.070;2023-09-19T11:25:50;22.30;99.90
16966;DHT22;8599;47.852;12.070;2023-09-19T11:28:35;22.20;99.90
16966;DHT22;8599;47.852;12.070;2023-09-19T11:34:57;21.80;99.90
16966;DHT22;8599;47.852;12.070;2023-09-19T11:38:00;21.90;99.90
16966;DHT22;8599;47.852;12.070;2023-09-19T11:40:28;22.10;99.90
16966;DHT22;8599;47.852;12.070;2023-09-19T11:42:56;22.10;99.90
16966;DHT22;8599;47.852;12.070;2023-09-19T11:48:26;22.00;99.90
16966;DHT22;8599;47.852;12.070;2023-09-19T11:50:56;21.90;99.90
16966;DHT22;8599;47.852;12.070;2023-09-19T11:53:31;21.80;99.90
16966;DHT22;8599;47.852;12.070;2023-09-19T11:56:02;21.70;99.90
16966;DHT22;8599;47.852;12.070;2023-09-19T11:58:32;21.80;99.90
16966;DHT22;8599;47.852;12.070;2023-09-19T12:01:00;22.00;99.90
16966;DHT22;8599;47.852;12.070;2023-09-19T12:03:35;22.40;99.90
16966;DHT22;8599;47.852;12.070;2023-09-19T12:06:12;22.70;99.90
16966;DHT22;8599;47.852;12.070;2023-09-19T12:08:40;22.90;99.90
16966;DHT22;8599;47.852;12.070;2023-09-19T12:11:13;22.90;99.90
16966;DHT22;8599;47.852;12.070;2023-09-19T12:13:42;22.80;99.90
16966;DHT22;8599;47.852;12.070;2023-09-19T12:16:12;22.70;99.90
16966;DHT22;8599;47.852;12.070;2023-09-19T12:18:40;22.80;99.90
16966;DHT22;8599;47.852;12.070;2023-09-19T12:21:08;22.90;99.90
16966;DHT22;8599;47.852;12.070;2023-09-19T12:23:58;22.90;99.90
16966;DHT22;8599;47.852;12.070;2023-09-19T12:26:26;22.90;99.90
16966;DHT22;8599;47.852;12.070;2023-09-19T12:28:55;23.00;99.90
16966;DHT22;8599;47.852;12.070;2023-09-19T12:31:22;23.10;99.90
16966;DHT22;8599;47.852;12.070;2023-09-19T12:33:53;23.30;99.90
16966;DHT22;8599;47.852;12.070;2023-09-19T12:36:21;23.50;99.90
16966;DHT22;8599;47.852;12.070;2023-09-19T12:38:50;23.60;99.90
16966;DHT22;8599;47.852;12.070;2023-09-19T12:41:20;23.80;99.90
16966;DHT22;8599;47.852;12.070;2023-09-19T12:43:47;23.90;99.90
16966;DHT22;8599;47.852;12.070;2023-09-19T12:46:15;24.10;99.90
16966;DHT22;8599;47.852;12.070;2023-09-19T12:48:45;24.20;99.90
16966;DHT22;8599;47.852;12.070;2023-09-19T12:51:13;24.20;99.90
16966;DHT22;8599;47.852;12.070;2023-09-19T12:53:43;24.10;99.90
16966;DHT22;8599;47.852;12.070;2023-09-19T12:56:13;24.10;99.90
16966;DHT22;8599;47.852;12.070;2023-09-19T12:58:52;24.10;99.90
16966;DHT22;8599;47.852;12.070;2023-09-19T13:01:20;24.20;99.90
16966;DHT22;8599;47.852;12.070;2023-09-19T13:04:12;24.10;99.90
16966;DHT22;8599;47.852;12.070;2023-09-19T13:06:41;24.10;99.90
16966;DHT22;8599;47.852;12.070;2023-09-19T13:09:10;24.00;99.90
16966;DHT22;8599;47.852;12.070;2023-09-19T13:11:38;23.90;99.90
16966;DHT22;8599;47.852;12.070;2023-09-19T13:14:21;23.80;99.90
16966;DHT22;8599;47.852;12.070;2023-09-19T13:17:02;23.90;99.90
16966;DHT22;8599;47.852;12.070;2023-09-19T13:19:37;24.30;99.90
16966;DHT22;8599;47.852;12.070;2023-09-19T13:22:05;24.50;99.90
16966;DHT22;8599;47.852;12.070;2023-09-19T13:24:34;24.50;99.90
16966;DHT22;8599;47.852;12.070;2023-09-19T13:27:05;24.40;99.90
16966;DHT22;8599;47.852;12.070;2023-09-19T13:29:34;24.10;99.90
16966;DHT22;8599;47.852;12.070;2023-09-19T13:32:01;24.40;99.90
16966;DHT22;8599;47.852;12.070;2023-09-19T13:34:29;24.30;99.90
16966;DHT22;8599;47.852;12.070;2023-09-19T13:36:57;24.20;99.90
16966;DHT22;8599;47.852;12.070;2023-09-19T13:39:24;24.40;99.90
16966;DHT22;8599;47.852;12.070;2023-09-19T13:41:51;24.50;99.90
16966;DHT22;8599;47.852;12.070;2023-09-19T13:44:18;24.70;99.90
16966;DHT22;8599;47.852;12.070;2023-09-19T13:46:46;25.00;99.90
16966;DHT22;8599;47.852;12.070;2023-09-19T13:49:13;25.00;99.90
16966;DHT22;8599;47.852;12.070;2023-09-19T13:51:40;24.70;99.90
16966;DHT22;8599;47.852;12.070;2023-09-19T13:54:09;24.30;99.90
16966;DHT22;8599;47.852;12.070;2023-09-19T13:56:37;24.50;99.90
16966;DHT22;8599;47.852;12.070;2023-09-19T13:59:04;24.90;99.90
16966;DHT22;8599;47.852;12.070;2023-09-19T14:01:31;25.20;99.60
16966;DHT22;8599;47.852;12.070;2023-09-19T14:03:59;25.40;99.90
16966;DHT22;8599;47.852;12.070;2023-09-19T14:06:26;25.60;99.50
16966;DHT22;8599;47.852;12.070;2023-09-19T14:08:52;25.40;99.00
16966;DHT22;8599;47.852;12.070;2023-09-19T14:11:19;25.60;99.50
16966;DHT22;8599;47.852;12.070;2023-09-19T14:13:46;25.70;99.00
16966;DHT22;8599;47.852;12.070;2023-09-19T14:16:15;25.70;98.70
16966;DHT22;8599;47.852;12.070;2023-09-19T14:18:42;25.60;98.80
16966;DHT22;8599;47.852;12.070;2023-09-19T14:21:12;25.70;98.90
16966;DHT22;8599;47.852;12.070;2023-09-19T14:23:40;25.90;99.20
16966;DHT22;8599;47.852;12.070;2023-09-19T14:26:08;26.10;98.20
16966;DHT22;8599;47.852;12.070;2023-09-19T14:28:35;26.30;98.20
16966;DHT22;8599;47.852;12.070;2023-09-19T14:31:05;26.20;98.30
16966;DHT22;8599;47.852;12.070;2023-09-19T14:33:32;25.90;98.00
16966;DHT22;8599;47.852;12.070;2023-09-19T14:36:03;25.30;99.10
16966;DHT22;8599;47.852;12.070;2023-09-19T14:38:32;24.80;99.90
16966;DHT22;8599;47.852;12.070;2023-09-19T14:41:00;24.40;99.90
16966;DHT22;8599;47.852;12.070;2023-09-19T14:43:27;24.10;99.90
16966;DHT22;8599;47.852;12.070;2023-09-19T14:45:55;23.70;99.90
16966;DHT22;8599;47.852;12.070;2023-09-19T14:48:22;23.60;99.90
16966;DHT22;8599;47.852;12.070;2023-09-19T14:50:50;23.50;99.90
16966;DHT22;8599;47.852;12.070;2023-09-19T14:53:17;23.50;99.90
16966;DHT22;8599;47.852;12.070;2023-09-19T14:55:46;23.70;99.90
16966;DHT22;8599;47.852;12.070;2023-09-19T14:58:17;24.00;99.90
16966;DHT22;8599;47.852;12.070;2023-09-19T15:00:44;24.40;99.90
16966;DHT22;8599;47.852;12.070;2023-09-19T15:03:11;24.80;99.90
16966;DHT22;8599;47.852;12.070;2023-09-19T15:05:39;25.60;99.90
16966;DHT22;8599;47.852;12.070;2023-09-19T15:08:05;26.60;99.30
16966;DHT22;8599;47.852;12.070;2023-09-19T15:10:32;27.10;98.70
16966;DHT22;8599;47.852;12.070;2023-09-19T15:13:00;27.40;97.00
16966;DHT22;8599;47.852;12.070;2023-09-19T15:15:27;27.40;96.80
16966;DHT22;8599;47.852;12.070;2023-09-19T15:17:54;27.60;96.60
16966;DHT22;8599;47.852;12.070;2023-09-19T15:20:21;27.90;96.40
16966;DHT22;8599;47.852;12.070;2023-09-19T15:22:47;28.00;96.20
16966;DHT22;8599;47.852;12.070;2023-09-19T15:25:15;28.10;95.40
16966;DHT22;8599;47.852;12.070;2023-09-19T15:27:42;27.90;95.70
16966;DHT22;8599;47.852;12.070;2023-09-19T15:30:12;27.70;95.90
16966;DHT22;8599;47.852;12.070;2023-09-19T15:32:40;27.90;95.90
16966;DHT22;8599;47.852;12.070;2023-09-19T15:35:08;27.70;95.90
16966;DHT22;8599;47.852;12.070;2023-09-19T15:37:37;27.40;96.80
16966;DHT22;8599;47.852;12.070;2023-09-19T15:40:04;27.20;96.30
16966;DHT22;8599;47.852;12.070;2023-09-19T15:42:34;27.00;96.20
16966;DHT22;8599;47.852;12.070;2023-09-19T15:45:00;26.90;97.30
16966;DHT22;8599;47.852;12.070;2023-09-19T15:47:29;26.80;96.60
16966;DHT22;8599;47.852;12.070;2023-09-19T15:49:56;26.50;97.40
16966;DHT22;8599;47.852;12.070;2023-09-19T15:52:23;26.40;97.40